Time,TemperatureF,DewpointF,PressureIn,WindDirection,WindDirectionDegrees,WindSpeedMPH,WindSpeedGustMPH,Humidity,HourlyPrecipIn,Conditions,Clouds,dailyrainin,SolarRadiationWatts/m^2,SoftwareType,DateUTC
2013-10-17 00:01:00,57.0,56.0,-100.00,South,177,0.0,0.0,95,0.00,,,0.00,0.000000,,2013-10-17 04:01:00,
2013-10-17 00:43:00,57.0,56.0,-100.00,South,177,0.0,0.0,95,0.00,,,0.00,0.000000,,2013-10-17 04:43:00,
2013-10-17 00:54:00,57.0,56.0,-100.00,South,177,0.0,0.0,95,0.00,,,0.00,0.000000,,2013-10-17 04:54:00,
2013-10-17 01:01:00,57.0,56.0,-100.00,WSW,251,0.0,1.0,96,0.00,,,0.00,0.000000,,2013-10-17 05:01:00,
2013-10-17 01:42:00,57.0,56.0,-100.00,WSW,251,0.0,1.0,96,0.00,,,0.00,0.000000,,2013-10-17 05:42:00,
2013-10-17 01:52:00,57.0,56.0,-100.00,WSW,251,0.0,1.0,96,0.00,,,0.00,0.000000,,2013-10-17 05:52:00,
2013-10-17 02:01:00,58.0,57.0,-100.00,WSW,242,0.0,1.0,95,0.00,,,0.00,0.000000,,2013-10-17 06:01:00,
2013-10-17 02:42:00,58.0,57.0,-100.00,WSW,242,0.0,1.0,95,0.00,,,0.00,0.000000,,2013-10-17 06:42:00,
2013-10-17 02:52:00,58.0,57.0,-100.00,WSW,242,0.0,1.0,95,0.00,,,0.00,0.000000,,2013-10-17 06:52:00,
2013-10-17 03:01:00,59.0,58.0,-100.00,WSW,255,0.0,3.0,95,0.00,,,0.00,0.000000,,2013-10-17 07:01:00,
2013-10-17 03:22:00,59.0,58.0,-100.00,WSW,255,0.0,3.0,95,0.00,,,0.00,0.000000,,2013-10-17 07:22:00,
2013-10-17 03:32:00,59.0,58.0,-100.00,WSW,255,0.0,3.0,95,0.00,,,0.00,0.000000,,2013-10-17 07:32:00,
2013-10-17 03:43:00,59.0,58.0,-100.00,WSW,255,0.0,3.0,95,0.00,,,0.00,0.000000,,2013-10-17 07:43:00,
2013-10-17 03:52:00,59.0,58.0,-100.00,WSW,255,0.0,3.0,95,0.00,,,0.00,0.000000,,2013-10-17 07:52:00,
2013-10-17 04:01:00,60.0,59.0,-100.00,West,280,1.0,4.0,95,0.00,,,0.00,0.000000,,2013-10-17 08:01:00,
2013-10-17 04:22:00,60.0,59.0,-100.00,West,280,1.0,4.0,95,0.00,,,0.00,0.000000,,2013-10-17 08:22:00,
2013-10-17 04:32:00,60.0,59.0,-100.00,West,280,1.0,4.0,95,0.00,,,0.00,0.000000,,2013-10-17 08:32:00,
2013-10-17 04:42:00,60.0,59.0,-100.00,West,280,1.0,4.0,95,0.00,,,0.00,0.000000,,2013-10-17 08:42:00,
2013-10-17 04:52:00,60.0,59.0,-100.00,West,280,1.0,4.0,95,0.00,,,0.00,0.000000,,2013-10-17 08:52:00,
2013-10-17 05:01:00,59.0,58.0,-100.00,West,268,1.0,4.0,96,0.00,,,0.00,0.000000,,2013-10-17 09:01:00,
2013-10-17 05:22:00,59.0,58.0,-100.00,West,268,1.0,4.0,96,0.00,,,0.00,0.000000,,2013-10-17 09:22:00,
2013-10-17 05:33:00,59.0,58.0,-100.00,West,268,1.0,4.0,96,0.00,,,0.00,0.000000,,2013-10-17 09:33:00,
2013-10-17 05:43:00,59.0,58.0,-100.00,West,268,1.0,4.0,96,0.00,,,0.00,0.000000,,2013-10-17 09:43:00,
2013-10-17 05:53:00,59.0,58.0,-100.00,West,268,1.0,4.0,96,0.00,,,0.00,0.000000,,2013-10-17 09:53:00,
2013-10-17 06:01:00,59.0,58.0,-100.00,West,277,0.0,5.0,96,0.00,,,0.00,0.000000,,2013-10-17 10:01:00,
2013-10-17 06:42:00,59.0,58.0,-100.00,West,277,0.0,5.0,96,0.00,,,0.00,0.000000,,2013-10-17 10:42:00,
2013-10-17 06:53:00,59.0,58.0,-100.00,West,277,0.0,5.0,96,0.00,,,0.00,0.000000,,2013-10-17 10:53:00,
2013-10-17 07:01:00,60.0,59.0,-100.00,West,269,0.0,3.0,95,0.00,,,0.00,0.000000,,2013-10-17 11:01:00,
2013-10-17 07:42:00,60.0,59.0,-100.00,West,269,0.0,3.0,95,0.00,,,0.00,0.000000,,2013-10-17 11:42:00,
2013-10-17 07:52:00,60.0,59.0,-100.00,West,269,0.0,3.0,95,0.00,,,0.00,0.000000,,2013-10-17 11:52:00,
2013-10-17 08:01:00,61.0,60.0,-100.00,WSW,254,1.0,4.0,95,0.00,,,0.00,4.000000,,2013-10-17 12:01:00,
2013-10-17 08:42:00,61.0,60.0,-100.00,WSW,254,1.0,4.0,95,0.00,,,0.00,4.000000,,2013-10-17 12:42:00,
2013-10-17 08:52:00,61.0,60.0,-100.00,WSW,254,1.0,4.0,95,0.00,,,0.00,4.000000,,2013-10-17 12:52:00,
2013-10-17 09:01:00,62.0,60.0,-100.00,WSW,247,1.0,5.0,94,0.00,,,0.00,14.000000,,2013-10-17 13:01:00,
2013-10-17 09:42:00,62.0,60.0,-100.00,WSW,247,1.0,5.0,94,0.00,,,0.00,14.000000,,2013-10-17 13:42:00,
2013-10-17 09:52:00,62.0,60.0,-100.00,WSW,247,1.0,5.0,94,0.00,,,0.00,14.000000,,2013-10-17 13:52:00,
2013-10-17 10:01:00,65.0,61.0,-100.00,West,270,1.0,6.0,86,0.00,,,0.00,49.000000,,2013-10-17 14:01:00,
2013-10-17 10:42:00,65.0,61.0,-100.00,West,270,1.0,6.0,86,0.00,,,0.00,49.000000,,2013-10-17 14:42:00,
2013-10-17 10:52:00,65.0,61.0,-100.00,West,270,1.0,6.0,86,0.00,,,0.00,49.000000,,2013-10-17 14:52:00,
2013-10-17 11:01:00,67.0,60.0,-100.00,WNW,282,1.0,6.0,79,0.00,,,0.00,74.000000,,2013-10-17 15:01:00,
2013-10-17 11:43:00,67.0,60.0,-100.00,WNW,282,1.0,6.0,79,0.00,,,0.00,74.000000,,2013-10-17 15:43:00,
2013-10-17 11:54:00,67.0,60.0,-100.00,WNW,282,1.0,6.0,79,0.00,,,0.00,74.000000,,2013-10-17 15:54:00,
2013-10-17 12:01:00,69.0,60.0,-100.00,West,271,1.0,7.0,74,0.00,,,0.00,81.000000,,2013-10-17 16:01:00,
2013-10-17 12:23:00,69.0,60.0,-100.00,West,271,1.0,7.0,74,0.00,,,0.00,81.000000,,2013-10-17 16:23:00,
2013-10-17 12:33:00,69.0,60.0,-100.00,West,271,1.0,7.0,74,0.00,,,0.00,81.000000,,2013-10-17 16:33:00,
2013-10-17 12:42:00,69.0,60.0,-100.00,West,271,1.0,7.0,74,0.00,,,0.00,81.000000,,2013-10-17 16:42:00,
2013-10-17 12:54:00,69.0,60.0,-100.00,West,271,1.0,7.0,74,0.00,,,0.00,81.000000,,2013-10-17 16:54:00,
2013-10-17 13:01:00,72.0,59.0,-100.00,SW,226,2.0,7.0,64,0.00,,,-99.99,138.000000,,2013-10-17 17:01:00,
2013-10-17 13:22:00,72.0,59.0,-100.00,SW,226,2.0,7.0,64,0.00,,,-99.99,138.000000,,2013-10-17 17:22:00,
2013-10-17 13:33:00,72.0,59.0,-100.00,SW,226,2.0,7.0,64,0.00,,,-99.99,138.000000,,2013-10-17 17:33:00,
2013-10-17 13:42:00,72.0,59.0,-100.00,SW,226,2.0,7.0,64,0.00,,,-99.99,138.000000,,2013-10-17 17:42:00,
2013-10-17 13:53:00,72.0,59.0,-100.00,SW,226,2.0,7.0,64,0.00,,,-99.99,138.000000,,2013-10-17 17:53:00,
2013-10-17 14:01:00,71.0,62.0,-100.00,SSW,201,2.0,8.0,72,0.00,,,0.00,160.000000,,2013-10-17 18:01:00,
2013-10-17 14:42:00,71.0,62.0,-100.00,SSW,201,2.0,8.0,72,0.00,,,0.00,160.000000,,2013-10-17 18:42:00,
2013-10-17 14:52:00,71.0,62.0,-100.00,SSW,201,2.0,8.0,72,0.00,,,0.00,160.000000,,2013-10-17 18:52:00,
2013-10-17 15:01:00,72.0,61.0,-100.00,SSW,213,3.0,9.0,69,0.00,,,0.00,223.000000,,2013-10-17 19:01:00,
2013-10-17 15:42:00,72.0,61.0,-100.00,SSW,213,3.0,9.0,69,0.00,,,0.00,223.000000,,2013-10-17 19:42:00,
2013-10-17 15:53:00,72.0,61.0,-100.00,SSW,213,3.0,9.0,69,0.00,,,0.00,223.000000,,2013-10-17 19:53:00,
2013-10-17 16:01:00,68.0,61.0,-100.00,SSW,206,2.0,9.0,78,0.00,,,0.00,150.000000,,2013-10-17 20:01:00,
2013-10-17 16:42:00,68.0,61.0,-100.00,SSW,206,2.0,9.0,78,0.00,,,0.00,150.000000,,2013-10-17 20:42:00,
2013-10-17 16:52:00,68.0,61.0,-100.00,SSW,206,2.0,9.0,78,0.00,,,0.00,150.000000,,2013-10-17 20:52:00,
2013-10-17 17:01:00,65.0,60.0,-100.00,WSW,238,3.0,9.0,83,0.00,,,0.00,69.000000,,2013-10-17 21:01:00,
2013-10-17 17:44:00,65.0,60.0,-100.00,WSW,238,3.0,9.0,83,0.00,,,0.00,69.000000,,2013-10-17 21:44:00,
2013-10-17 17:54:00,65.0,60.0,-100.00,WSW,238,3.0,9.0,83,0.00,,,0.00,69.000000,,2013-10-17 21:54:00,
2013-10-17 18:01:00,62.0,59.0,-100.00,SW,217,3.0,9.0,90,0.00,,,0.00,8.000000,,2013-10-17 22:01:00,
2013-10-17 18:24:00,62.0,59.0,-100.00,SW,217,3.0,9.0,90,0.00,,,0.00,8.000000,,2013-10-17 22:24:00,
2013-10-17 18:33:00,62.0,59.0,-100.00,SW,217,3.0,9.0,90,0.00,,,0.00,8.000000,,2013-10-17 22:33:00,
2013-10-17 18:43:00,62.0,59.0,-100.00,SW,217,3.0,9.0,90,0.00,,,0.00,8.000000,,2013-10-17 22:43:00,
2013-10-17 18:53:00,62.0,59.0,-100.00,SW,217,3.0,9.0,90,0.00,,,0.00,8.000000,,2013-10-17 22:53:00,
2013-10-17 19:01:00,61.0,59.0,-100.00,SSW,205,2.0,9.0,93,0.00,,,0.00,0.000000,,2013-10-17 23:01:00,
2013-10-17 19:43:00,61.0,59.0,-100.00,SSW,205,2.0,9.0,93,0.00,,,0.00,0.000000,,2013-10-17 23:43:00,
2013-10-17 19:53:00,61.0,59.0,-100.00,SSW,205,2.0,9.0,93,0.00,,,0.00,0.000000,,2013-10-17 23:53:00,
2013-10-17 20:01:00,62.0,60.0,-100.00,SW,236,3.0,7.0,93,0.00,,,0.00,0.000000,,2013-10-18 00:01:00,
2013-10-17 20:42:00,62.0,60.0,-100.00,SW,236,3.0,7.0,93,0.00,,,0.00,0.000000,,2013-10-18 00:42:00,
2013-10-17 20:53:00,62.0,60.0,-100.00,SW,236,3.0,7.0,93,0.00,,,0.00,0.000000,,2013-10-18 00:53:00,
2013-10-17 21:01:00,62.0,60.0,-100.00,WSW,243,2.0,12.0,94,0.00,,,0.00,0.000000,,2013-10-18 01:01:00,
2013-10-17 21:42:00,62.0,60.0,-100.00,WSW,243,2.0,12.0,94,0.00,,,0.00,0.000000,,2013-10-18 01:42:00,
2013-10-17 21:53:00,62.0,60.0,-100.00,WSW,243,2.0,12.0,94,0.00,,,0.00,0.000000,,2013-10-18 01:53:00,
2013-10-17 22:01:00,62.0,60.0,-100.00,SW,221,2.0,10.0,94,0.00,,,0.00,0.000000,,2013-10-18 02:01:00,
2013-10-17 22:42:00,62.0,60.0,-100.00,SW,221,2.0,10.0,94,0.00,,,0.00,0.000000,,2013-10-18 02:42:00,
2013-10-17 22:52:00,62.0,60.0,-100.00,SW,221,2.0,10.0,94,0.00,,,0.00,0.000000,,2013-10-18 02:52:00,
2013-10-17 23:01:00,62.0,60.0,-100.00,SW,214,2.0,10.0,94,0.00,,,0.00,0.000000,,2013-10-18 03:01:00,
2013-10-17 23:44:00,62.0,60.0,-100.00,SW,214,2.0,10.0,94,0.00,,,0.00,0.000000,,2013-10-18 03:44:00,
2013-10-17 23:55:00,62.0,60.0,-100.00,SW,214,2.0,10.0,94,0.00,,,0.00,0.000000,,2013-10-18 03:55:00,